Terminal Aerodrome Forecast
Issued by NWS

Home | Current Version | Previous Version | Text Only | Print | Product List | Glossary On
Versions: 1 2 3 4 5 6 7 8 9 10 11 12 13 14 15 16 17
000
FTUS42 KTAE 292320
TAFABY
TAF
KABY 292320Z 3000/3024 18013KT P6SM BKN250
     FM300100 17008KT P6SM BKN100
     FM300900 14007KT P6SM OVC015
     FM301500 16013KT P6SM BKN025
     FM301800 16014G19KT P6SM BKN050=

USA.gov is the U.S. government's official web portal to all federal, state and local government web resources and services.